createdAt,value
2018-08-22T00:00:52.313Z,13.83
2018-08-22T00:03:34.936Z,16.03
2018-08-22T00:06:11.073Z,20.93
2018-08-22T00:08:44.756Z,30.12
2018-08-22T00:11:16.331Z,15.30
2018-08-22T00:13:47.141Z,21.00
2018-08-22T00:16:16.585Z,42.17
2018-08-22T00:18:45.798Z,57.93
2018-08-22T00:21:16.079Z,17.10
2018-08-22T00:23:46.030Z,13.40
2018-08-22T00:26:15.233Z,14.33
2018-08-22T00:28:44.552Z,20.13
2018-08-22T00:31:14.262Z,21.03
2018-08-22T00:33:43.796Z,27.20
2018-08-22T00:36:19.228Z,14.87
2018-08-22T00:38:48.663Z,16.13
2018-08-22T00:41:24.685Z,22.67
2018-08-22T00:43:54.640Z,11.27
2018-08-22T00:46:24.464Z,14.77
2018-08-22T00:48:53.982Z,16.20
2018-08-22T00:51:23.346Z,12.03
2018-08-22T00:53:53.208Z,11.70
2018-08-22T00:56:22.479Z,14.57
2018-08-22T00:58:51.925Z,20.27
2018-08-22T01:01:21.316Z,16.10
2018-08-22T01:03:50.713Z,14.73
2018-08-22T01:06:20.426Z,13.00
2018-08-22T01:08:50.438Z,10.90
2018-08-22T01:11:20.009Z,10.90
2018-08-22T01:13:49.279Z,10.53
2018-08-22T01:16:18.493Z,12.73
2018-08-22T01:18:48.436Z,15.43
2018-08-22T01:21:17.814Z,9.60
2018-08-22T01:23:47.142Z,14.13
2018-08-22T01:26:16.308Z,12.43
2018-08-22T01:28:47.179Z,18.87
2018-08-22T01:31:17.386Z,11.90
2018-08-22T01:33:47.793Z,11.27
2018-08-22T01:36:17.115Z,12.33
2018-08-22T01:38:46.343Z,12.23
2018-08-22T01:41:15.867Z,16.90
2018-08-22T01:43:45.686Z,15.40
2018-08-22T01:46:15.014Z,10.70
2018-08-22T01:48:45.043Z,13.80
2018-08-22T01:51:14.962Z,15.67
2018-08-22T01:53:44.298Z,11.90
2018-08-22T01:56:14.316Z,9.93
2018-08-22T01:58:43.828Z,13.30
2018-08-22T02:01:15.349Z,9.87
2018-08-22T02:03:45.095Z,10.43
2018-08-22T02:06:14.473Z,8.43
2018-08-22T02:08:43.811Z,11.13
2018-08-22T02:11:13.368Z,12.47
2018-08-22T02:13:44.499Z,14.43
2018-08-22T02:16:13.842Z,15.93
2018-08-22T02:18:43.002Z,10.50
2018-08-22T02:21:12.405Z,11.40
2018-08-22T02:23:41.659Z,31.63
2018-08-22T02:26:12.596Z,8.93
2018-08-22T02:28:42.446Z,8.60
2018-08-22T02:31:12.074Z,29.03
2018-08-22T02:33:42.659Z,14.70
2018-08-22T02:36:12.960Z,9.10
2018-08-22T02:38:42.290Z,20.30
2018-08-22T02:41:11.932Z,14.97
2018-08-22T02:43:41.082Z,9.63
2018-08-22T02:46:10.437Z,22.17
2018-08-22T02:48:45.858Z,9.57
2018-08-22T02:51:15.882Z,7.53
2018-08-22T02:53:46.198Z,15.47
2018-08-22T02:56:15.760Z,12.37
2018-08-22T02:58:45.981Z,6.27
2018-08-22T03:01:15.911Z,6.80
2018-08-22T03:03:46.305Z,7.63
2018-08-22T03:06:15.878Z,8.27
2018-08-22T03:08:47.415Z,11.37
2018-08-22T03:11:17.578Z,9.30
2018-08-22T03:13:47.146Z,10.10
2018-08-22T03:16:17.373Z,11.47
2018-08-22T03:18:46.783Z,11.20
2018-08-22T03:21:16.016Z,11.60
2018-08-22T03:23:46.348Z,10.67
2018-08-22T03:26:15.660Z,7.90
2018-08-22T03:28:44.924Z,8.33
2018-08-22T03:31:14.095Z,7.20
2018-08-22T03:33:43.404Z,11.90
2018-08-22T03:36:13.517Z,12.27
2018-08-22T03:38:43.499Z,10.50
2018-08-22T03:41:12.952Z,9.73
2018-08-22T03:43:42.523Z,12.80
2018-08-22T03:46:11.901Z,12.60
2018-08-22T03:48:41.158Z,7.67
2018-08-22T03:51:10.357Z,11.17
2018-08-22T03:53:39.737Z,15.93
2018-08-22T03:56:09.266Z,12.93
2018-08-22T03:58:38.434Z,21.03
2018-08-22T04:01:07.608Z,12.80
2018-08-22T04:03:36.833Z,8.00
2018-08-22T04:06:06.348Z,11.47
2018-08-22T04:08:35.755Z,10.10
2018-08-22T04:11:04.984Z,17.93
2018-08-22T04:13:34.161Z,11.00
2018-08-22T04:16:04.357Z,15.43
2018-08-22T04:18:33.637Z,10.90
2018-08-22T04:21:02.936Z,14.33
2018-08-22T04:23:32.276Z,13.93
2018-08-22T04:26:01.653Z,17.40
2018-08-22T04:28:30.962Z,14.10
2018-08-22T04:31:00.274Z,12.10
2018-08-22T04:33:29.866Z,8.87
2018-08-22T04:35:59.257Z,22.87
2018-08-22T04:38:28.564Z,147.10
2018-08-22T04:41:02.284Z,20.60
2018-08-22T04:43:32.436Z,11.30
2018-08-22T04:46:01.648Z,11.90
2018-08-22T04:48:31.595Z,19.90
2018-08-22T04:51:01.620Z,14.30
2018-08-22T04:53:31.189Z,9.20
2018-08-22T04:56:00.431Z,10.50
2018-08-22T04:58:29.668Z,19.70
2018-08-22T05:00:59.696Z,11.30
2018-08-22T05:03:29.830Z,9.93
2018-08-22T05:05:59.244Z,17.70
2018-08-22T05:08:28.613Z,11.40
2018-08-22T05:10:58.519Z,16.93
2018-08-22T05:13:27.817Z,14.87
2018-08-22T05:15:57.233Z,16.90
2018-08-22T05:18:26.496Z,28.73
2018-08-22T05:20:55.945Z,18.73
2018-08-22T05:23:25.739Z,16.13
2018-08-22T05:25:54.997Z,18.33
2018-08-22T05:28:25.903Z,13.20
2018-08-22T05:30:56.089Z,10.00
2018-08-22T05:33:25.960Z,10.63
2018-08-22T05:35:55.764Z,16.10
2018-08-22T05:38:28.833Z,11.87
2018-08-22T05:40:59.131Z,12.80
2018-08-22T05:43:29.085Z,15.03
2018-08-22T05:46:02.195Z,17.60
2018-08-22T05:48:32.021Z,21.33
2018-08-22T05:51:01.353Z,14.10
2018-08-22T05:53:30.748Z,20.23
2018-08-22T05:56:10.347Z,13.40
2018-08-22T05:58:40.239Z,15.63
2018-08-22T06:01:19.828Z,11.80
2018-08-22T06:03:51.998Z,19.13
2018-08-22T06:06:21.448Z,13.27
2018-08-22T06:08:51.869Z,15.20
2018-08-22T06:11:24.365Z,15.27
2018-08-22T06:13:54.005Z,25.93
2018-08-22T06:16:23.799Z,18.80
2018-08-22T06:18:54.685Z,13.50
2018-08-22T06:21:23.997Z,16.80
2018-08-22T06:23:53.648Z,13.93
2018-08-22T06:26:24.912Z,16.13
2018-08-22T06:28:54.399Z,13.27
2018-08-22T06:31:23.873Z,21.07
2018-08-22T06:33:53.714Z,9.67
2018-08-22T06:36:23.069Z,12.40
2018-08-22T06:38:53.037Z,11.90
2018-08-22T06:41:22.578Z,36.97
2018-08-22T06:43:52.216Z,11.77
2018-08-22T06:46:21.889Z,64.03
2018-08-22T06:48:51.330Z,14.30
2018-08-22T06:51:20.911Z,8.90
2018-08-22T06:53:51.237Z,10.40
2018-08-22T06:56:20.752Z,14.20
2018-08-22T06:58:52.549Z,9.90
2018-08-22T07:01:21.888Z,8.00
2018-08-22T07:03:53.765Z,12.27
2018-08-22T07:06:24.177Z,12.17
2018-08-22T07:08:53.756Z,23.97
2018-08-22T07:11:23.631Z,11.17
2018-08-22T07:13:53.602Z,14.30
2018-08-22T07:16:23.118Z,7.73
2018-08-22T07:18:52.397Z,12.77
2018-08-22T07:21:24.483Z,31.83
2018-08-22T07:23:55.712Z,9.47
2018-08-22T07:26:24.980Z,11.77
2018-08-22T07:28:54.500Z,24.50
2018-08-22T07:31:23.850Z,10.20
2018-08-22T07:33:53.520Z,13.60
2018-08-22T07:36:23.131Z,14.67
2018-08-22T07:38:54.175Z,13.33
2018-08-22T07:41:23.612Z,15.40
2018-08-22T07:43:56.171Z,29.80
2018-08-22T07:46:27.345Z,17.67
2018-08-22T07:48:56.766Z,16.30
2018-08-22T07:51:27.579Z,16.53
2018-08-22T07:53:57.265Z,16.40
2018-08-22T07:56:27.196Z,23.13
2018-08-22T07:59:07.997Z,20.20
2018-08-22T08:01:39.387Z,22.43
2018-08-22T08:04:10.118Z,24.60
2018-08-22T08:06:40.630Z,24.43
2018-08-22T08:09:14.603Z,22.50
2018-08-22T08:11:45.905Z,25.77
2018-08-22T08:14:16.580Z,17.93
2018-08-22T08:16:45.927Z,19.10
2018-08-22T08:19:15.286Z,17.50
2018-08-22T08:21:44.689Z,23.60
2018-08-22T08:24:13.857Z,14.80
2018-08-22T08:26:43.930Z,16.47
2018-08-22T08:29:14.487Z,10.97
2018-08-22T08:31:44.046Z,23.27
2018-08-22T08:34:29.448Z,15.70
2018-08-22T08:37:00.313Z,24.47
2018-08-22T08:39:34.431Z,25.17
2018-08-22T08:42:06.848Z,18.67
2018-08-22T08:44:36.386Z,20.23
2018-08-22T08:47:05.723Z,20.73
2018-08-22T08:49:35.169Z,22.97
2018-08-22T08:52:05.401Z,9.93
2018-08-22T08:54:35.802Z,16.70
2018-08-22T08:57:05.248Z,13.70
2018-08-22T08:59:35.707Z,19.50
2018-08-22T09:02:05.346Z,15.87
2018-08-22T09:04:46.119Z,12.40
2018-08-22T09:07:16.052Z,16.03
2018-08-22T09:09:45.950Z,25.87
2018-08-22T09:12:19.565Z,33.27
2018-08-22T09:14:49.875Z,11.93
2018-08-22T09:17:21.000Z,9.47
2018-08-22T09:19:50.296Z,15.30
2018-08-22T09:22:21.216Z,16.03
2018-08-22T09:25:01.899Z,13.30
2018-08-22T09:27:31.447Z,21.63
2018-08-22T09:30:03.059Z,16.17
2018-08-22T09:32:33.899Z,14.73
2018-08-22T09:35:05.209Z,10.90
2018-08-22T09:37:37.236Z,8.05
2018-08-22T09:40:07.393Z,8.00
2018-08-22T09:42:37.942Z,15.65
2018-08-22T09:45:08.346Z,17.70
2018-08-22T09:47:41.142Z,11.68
2018-08-22T09:50:16.167Z,15.40
2018-08-22T09:52:47.345Z,12.57
2018-08-22T09:55:18.078Z,10.77
2018-08-22T09:57:48.083Z,13.40
2018-08-22T10:00:23.654Z,19.57
2018-08-22T10:02:54.232Z,15.58
2018-08-22T10:05:23.677Z,12.07
2018-08-22T10:07:53.712Z,11.15
2018-08-22T10:10:24.961Z,18.82
2018-08-22T10:13:01.735Z,13.65
2018-08-22T10:15:31.822Z,25.55
2018-08-22T10:18:03.199Z,19.98
2018-08-22T10:20:34.592Z,23.50
2018-08-22T10:23:06.790Z,24.87
2018-08-22T10:25:38.320Z,16.00
2018-08-22T10:28:08.090Z,17.10
2018-08-22T10:30:37.755Z,14.70
2018-08-22T10:33:08.511Z,13.08
2018-08-22T10:35:39.932Z,18.02
2018-08-22T10:38:11.852Z,9.23
2018-08-22T10:40:41.274Z,14.25
2018-08-22T10:43:11.026Z,18.50
2018-08-22T10:45:47.576Z,18.30
2018-08-22T10:48:16.998Z,16.67
2018-08-22T10:50:48.717Z,15.45
2018-08-22T10:53:20.759Z,15.28
2018-08-22T10:55:51.199Z,20.82
2018-08-22T10:58:21.574Z,16.12
2018-08-22T11:00:51.732Z,18.95
2018-08-22T11:03:22.381Z,15.53
2018-08-22T11:05:53.303Z,13.90
2018-08-22T11:08:23.942Z,16.10
2018-08-22T11:10:54.583Z,14.33
2018-08-22T11:13:24.850Z,25.10
2018-08-22T11:15:57.629Z,19.12
2018-08-22T11:18:28.429Z,16.82
2018-08-22T11:21:11.245Z,28.17
2018-08-22T11:23:53.044Z,11.70
2018-08-22T11:26:33.632Z,8.53
2018-08-22T11:29:16.240Z,21.85
2018-08-22T11:31:58.861Z,18.35
2018-08-22T11:34:42.130Z,9.88
2018-08-22T11:37:21.546Z,16.02
2018-08-22T11:39:56.208Z,25.57
2018-08-22T11:42:27.108Z,27.53
2018-08-22T11:44:59.151Z,14.60
2018-08-22T11:47:28.930Z,15.10
2018-08-22T11:50:03.222Z,32.45
2018-08-22T11:52:33.085Z,10.93
2018-08-22T11:55:06.409Z,15.00
2018-08-22T11:57:37.381Z,24.45
2018-08-22T12:00:10.478Z,17.02
2018-08-22T12:02:40.997Z,21.35
2018-08-22T12:05:11.033Z,14.60
2018-08-22T12:07:42.189Z,12.13
2018-08-22T12:10:13.961Z,11.20
2018-08-22T12:12:44.417Z,18.23
2018-08-22T12:15:16.225Z,12.85
2018-08-22T12:17:46.652Z,25.10
2018-08-22T12:20:25.552Z,16.23
2018-08-22T12:22:55.695Z,23.03
2018-08-22T12:25:26.062Z,19.53
2018-08-22T12:30:33.022Z,21.70
2018-08-22T12:33:10.888Z,15.60
2018-08-22T12:35:40.878Z,14.87
2018-08-22T12:38:11.933Z,17.13
2018-08-22T12:40:44.200Z,19.63
2018-08-22T12:43:26.157Z,16.53
2018-08-22T12:45:58.284Z,16.83
2018-08-22T12:48:31.969Z,21.53
2018-08-22T12:51:02.253Z,14.77
2018-08-22T12:57:35.734Z,12.63
2018-08-22T13:00:06.586Z,17.70
2018-08-22T13:02:38.734Z,19.80
2018-08-22T13:05:10.227Z,13.57
2018-08-22T13:07:40.040Z,21.73
2018-08-22T13:10:11.230Z,11.33
2018-08-22T13:12:44.819Z,22.57
2018-08-22T13:15:14.486Z,12.77
2018-08-22T13:17:46.377Z,12.43
2018-08-22T13:20:19.345Z,9.73
2018-08-22T13:22:50.483Z,20.43
2018-08-22T13:25:21.154Z,18.37
2018-08-22T13:27:52.909Z,19.60
2018-08-22T13:30:24.618Z,10.00
2018-08-22T13:32:56.123Z,12.50
2018-08-22T13:35:29.625Z,10.87
2018-08-22T13:38:03.085Z,14.77
2018-08-22T13:40:36.040Z,20.00
2018-08-22T13:43:17.587Z,18.80
2018-08-22T13:46:11.897Z,21.97
2018-08-22T13:48:47.633Z,15.97
2018-08-22T13:51:18.074Z,11.87
2018-08-22T13:53:48.400Z,19.63
2018-08-22T13:56:19.682Z,16.70
2018-08-22T13:58:50.622Z,19.47
2018-08-22T14:01:21.429Z,15.50
2018-08-22T14:03:53.176Z,12.93
2018-08-22T14:06:55.355Z,25.80
2018-08-22T14:09:36.088Z,17.40
2018-08-22T14:12:06.588Z,15.13
2018-08-22T14:14:38.101Z,23.00
2018-08-22T14:17:08.472Z,22.53
2018-08-22T14:19:39.073Z,39.63
2018-08-22T14:22:09.315Z,52.47
2018-08-22T14:24:40.557Z,27.20
2018-08-22T14:27:21.933Z,24.43
2018-08-22T14:29:55.442Z,20.93
2018-08-22T14:32:26.195Z,48.77
2018-08-22T14:35:01.741Z,14.60
2018-08-22T14:37:34.329Z,21.93
2018-08-22T14:40:05.953Z,18.23
2018-08-22T14:42:39.653Z,16.17
2018-08-22T14:45:18.478Z,19.23
2018-08-22T14:47:48.489Z,14.83
2018-08-22T14:50:19.966Z,17.47
2018-08-22T14:52:54.998Z,17.23
2018-08-22T14:55:25.365Z,14.77
2018-08-22T14:57:57.283Z,20.40
2018-08-22T15:00:28.609Z,30.40
2018-08-22T15:03:03.075Z,25.30
2018-08-22T15:05:36.267Z,13.10
2018-08-22T15:08:10.735Z,19.40
2018-08-22T15:13:43.268Z,28.10
2018-08-22T15:16:16.892Z,15.37
2018-08-22T15:18:47.415Z,17.30
2018-08-22T15:21:20.598Z,15.20
2018-08-22T15:24:10.078Z,22.53
2018-08-22T15:26:40.156Z,18.93
2018-08-22T15:29:14.105Z,16.80
2018-08-22T15:31:45.078Z,23.07
2018-08-22T15:34:18.417Z,16.20
2018-08-22T15:36:51.682Z,15.33
2018-08-22T15:39:23.181Z,15.03
2018-08-22T15:41:53.184Z,22.60
2018-08-22T15:44:23.888Z,28.40
2018-08-22T15:46:53.484Z,24.27
2018-08-22T15:49:26.195Z,24.17
2018-08-22T15:51:56.291Z,20.83
2018-08-22T15:54:26.464Z,30.53
2018-08-22T15:56:58.403Z,24.50
2018-08-22T15:59:38.901Z,25.80
2018-08-22T16:02:12.929Z,28.63
2018-08-22T16:04:54.626Z,19.10
2018-08-22T16:07:28.432Z,28.23
2018-08-22T16:10:00.458Z,22.00
2018-08-22T16:12:35.208Z,37.67
2018-08-22T16:15:16.087Z,24.20
2018-08-22T16:17:59.084Z,27.47
2018-08-22T16:20:30.580Z,21.50
2018-08-22T16:23:07.487Z,28.63
2018-08-22T16:25:46.572Z,51.03
2018-08-22T16:28:24.377Z,34.93
2018-08-22T16:31:07.887Z,26.60
2018-08-22T16:33:41.719Z,34.00
2018-08-22T16:36:35.177Z,27.60
2018-08-22T16:39:07.659Z,31.87
2018-08-22T16:41:41.830Z,34.87
2018-08-22T16:44:13.849Z,27.87
2018-08-22T16:46:44.298Z,33.03
2018-08-22T16:49:18.452Z,29.53
2018-08-22T16:51:53.222Z,27.13
2018-08-22T16:54:25.191Z,32.23
2018-08-22T16:57:01.440Z,43.90
2018-08-22T16:59:34.450Z,29.50
2018-08-22T17:02:15.552Z,36.23
2018-08-22T17:04:49.501Z,34.63
2018-08-22T17:07:22.443Z,32.93
2018-08-22T17:09:53.623Z,39.80
2018-08-22T17:12:32.257Z,23.57
2018-08-22T17:15:12.442Z,27.27
2018-08-22T17:17:50.615Z,37.23
2018-08-22T17:20:21.741Z,40.90
2018-08-22T17:22:55.187Z,32.47
2018-08-22T17:25:28.680Z,30.50
2018-08-22T17:28:41.327Z,29.90
2018-08-22T17:31:28.762Z,29.73
2018-08-22T17:34:06.095Z,31.90
2018-08-22T17:36:46.809Z,34.80
2018-08-22T17:39:21.109Z,30.23
2018-08-22T17:41:52.784Z,35.13
2018-08-22T17:44:27.840Z,35.13
2018-08-22T17:47:00.000Z,29.13
2018-08-22T17:49:34.302Z,108.83
2018-08-22T17:52:13.382Z,23.02
2018-08-22T17:54:45.207Z,24.87
2018-08-22T17:57:28.953Z,44.10
2018-08-22T18:00:03.074Z,38.40
2018-08-22T18:02:35.335Z,26.17
2018-08-22T18:05:28.529Z,38.23
2018-08-22T18:08:27.893Z,32.70
2018-08-22T18:17:04.647Z,28.07
2018-08-22T18:19:39.327Z,25.77
2018-08-22T18:22:14.993Z,27.60
2018-08-22T18:24:52.331Z,46.90
2018-08-22T18:27:24.435Z,33.03
2018-08-22T18:29:58.655Z,26.50
2018-08-22T18:32:33.443Z,37.37
2018-08-22T18:35:09.708Z,43.83
2018-08-22T18:37:43.262Z,32.73
2018-08-22T18:40:36.789Z,25.63
2018-08-22T18:43:08.278Z,34.50
2018-08-22T18:46:09.803Z,26.80
2018-08-22T18:48:42.581Z,27.20
2018-08-22T18:51:16.008Z,35.53
2018-08-22T18:53:55.600Z,32.20
2018-08-22T18:56:32.891Z,27.23
2018-08-22T18:59:16.866Z,33.33
2018-08-22T19:01:52.317Z,25.83
2018-08-22T19:04:29.668Z,28.10
2018-08-22T19:07:14.079Z,24.90
2018-08-22T19:09:46.596Z,40.30
2018-08-22T19:12:27.431Z,31.40
2018-08-22T19:15:01.313Z,31.60
2018-08-22T19:17:34.312Z,38.13
2018-08-22T19:20:06.717Z,30.20
2018-08-22T19:22:39.112Z,32.33
2018-08-22T19:25:12.903Z,31.70
2018-08-22T19:27:48.573Z,44.33
2018-08-22T19:30:30.778Z,38.03
2018-08-22T19:33:07.689Z,34.00
2018-08-22T19:35:48.690Z,36.73
2018-08-22T19:38:31.926Z,33.37
2018-08-22T19:41:18.709Z,37.67
2018-08-22T19:44:06.930Z,34.60
2018-08-22T19:46:49.429Z,32.10
2018-08-22T19:49:34.422Z,34.90
2018-08-22T19:52:13.826Z,35.20
2018-08-22T19:54:47.780Z,30.70
2018-08-22T19:57:23.268Z,47.37
2018-08-22T19:59:55.353Z,27.40
2018-08-22T20:02:50.106Z,35.10
2018-08-22T20:05:52.345Z,28.70
2018-08-22T20:08:37.719Z,50.97
2018-08-22T20:11:11.216Z,37.70
2018-08-22T20:13:56.672Z,31.50
2018-08-22T20:16:41.500Z,32.03
2018-08-22T20:19:16.079Z,33.73
2018-08-22T20:21:47.511Z,34.60
2018-08-22T20:24:27.461Z,37.47
2018-08-22T20:27:06.289Z,37.27
2018-08-22T20:29:41.798Z,39.90
2018-08-22T20:32:28.458Z,87.30
2018-08-22T20:35:03.119Z,42.03
2018-08-22T20:37:43.283Z,28.10
2018-08-22T20:40:19.333Z,39.00
2018-08-22T20:43:08.331Z,24.97
2018-08-22T20:45:40.421Z,41.30
2018-08-22T20:48:26.293Z,31.63
2018-08-22T20:51:04.883Z,31.07
2018-08-22T20:53:37.604Z,33.00
2018-08-22T20:56:09.095Z,35.07
2018-08-22T20:58:42.674Z,36.80
2018-08-22T21:01:19.186Z,35.83
2018-08-22T21:03:57.716Z,43.67
2018-08-22T21:06:36.381Z,40.53
2018-08-22T21:09:13.592Z,40.67
2018-08-22T21:11:46.397Z,47.00
2018-08-22T21:14:24.756Z,36.17
2018-08-22T21:17:05.749Z,49.73
2018-08-22T21:19:36.713Z,46.90
2018-08-22T21:22:17.265Z,52.70
2018-08-22T21:24:47.940Z,51.70
2018-08-22T21:27:24.750Z,54.90
2018-08-22T21:30:01.766Z,53.37
2018-08-22T21:32:38.040Z,56.90
2018-08-22T21:35:45.757Z,55.00
2018-08-22T21:38:42.082Z,55.70
2018-08-22T21:41:18.811Z,67.10
2018-08-22T21:43:57.076Z,70.67
2018-08-22T21:46:36.044Z,64.53
2018-08-22T21:49:17.186Z,60.17
2018-08-22T21:51:50.103Z,64.67
2018-08-22T21:54:27.592Z,69.43
2018-08-22T21:57:09.829Z,76.93
2018-08-22T21:59:43.799Z,84.37
2018-08-22T22:02:20.869Z,74.63
2018-08-22T22:08:08.916Z,86.33
2018-08-22T22:10:43.216Z,87.10
2018-08-22T22:16:11.363Z,68.30
2018-08-22T22:18:56.315Z,88.90
2018-08-22T22:21:57.932Z,67.37
2018-08-22T22:24:31.845Z,68.00
2018-08-22T22:27:03.350Z,75.70
2018-08-22T22:29:34.948Z,66.60
2018-08-22T22:32:15.828Z,65.43
2018-08-22T22:34:46.828Z,78.53
2018-08-22T22:37:26.611Z,67.63
2018-08-22T22:40:13.917Z,69.07
2018-08-22T22:42:47.334Z,66.03
2018-08-22T22:45:17.870Z,68.97
2018-08-22T22:47:50.607Z,71.37
2018-08-22T22:50:22.872Z,66.13
2018-08-22T22:52:55.111Z,83.40
2018-08-22T22:55:26.508Z,78.10
2018-08-22T22:57:56.698Z,76.93
2018-08-22T23:00:26.462Z,70.73
2018-08-22T23:03:01.442Z,81.73
2018-08-22T23:05:35.003Z,85.43
2018-08-22T23:08:06.903Z,83.03
2018-08-22T23:10:36.893Z,64.17
2018-08-22T23:13:08.336Z,71.67
2018-08-22T23:15:38.102Z,81.73
2018-08-22T23:18:16.027Z,68.90
2018-08-22T23:20:46.665Z,72.30
2018-08-22T23:23:29.398Z,68.50
2018-08-22T23:26:14.814Z,76.87
2018-08-22T23:28:45.793Z,78.70
2018-08-22T23:31:21.212Z,73.80
2018-08-22T23:33:52.467Z,78.93
2018-08-22T23:36:23.216Z,80.93
2018-08-22T23:38:52.715Z,80.17
2018-08-22T23:41:22.133Z,78.37
2018-08-22T23:43:54.365Z,76.40
2018-08-22T23:46:25.241Z,81.30
2018-08-22T23:48:58.282Z,81.33
2018-08-22T23:51:28.270Z,69.97
2018-08-22T23:55:02.772Z,82.73
2018-08-22T23:57:32.115Z,89.10
